Terminal Aerodrome Forecast
Issued by NWS Portland, OR

Home | Current Version | Previous Version | Text Only | Print | Product List | Glossary On
Versions: 1 2 3 4 5 6 7 8 9 10 11 12 13 14 15 16 17 18 19 20 21 22 23
000
FTUS46 KPQR 101135
TAFSLE
TAF
KSLE 101135Z 1012/1112 16006KT P6SM VCSH SCT025 BKN045 OVC070
     FM102100 18009KT P6SM -RA SCT030 OVC050
     FM110000 20011KT P6SM -RA BKN025 OVC045
     FM110400 20009KT P6SM -SHRA BKN025 BKN050=

USA.gov is the U.S. government's official web portal to all federal, state and local government web resources and services.